Arcadia, Oklahoma
Current Conditions -  °F | °C
As of 2:53 PM on Thursday 23 Oct 2014 (Local Time) from KGOK Reporting Station
Clear Clear  
Wind Chill: 26°   Ceiling: Unl
Heat Index: 26°   Visibility: 10mi
Dew Point: 15°   Wind: 10mph
Humidity: 52%   Direction: 210°SSW
Pressure: 30.05"   Gusts: NA
Location:  35.67°N, 97.33°W
Report Text: KGOK 231953Z AUTO 21009KT 10SM CLR 26/15 A3005 RMK AO2 SLP168 T02560150
Loading
Personal Weather Stations






























Interactive Weather Map
Tropical Storm Tracking
New forecast layout! Learn more

10-Day Weather Forecast

Advertisements
Track Severe Weather on mobile